메인 페이지
METAR-TAF:

METAR-TAF

공항 :

시카고 오헤어 국제공항

시카고, 일리노이, 미국

위도: 41-58-47N, 경도: 087-54-16W, 고도: 203m

현재 날씨관측

예보는 33분 전, 06:51시(UTC)에 발표되었습니다.
무풍
온도 7°C
습도 45%
기압 1012 hPa
시정: 16.1km
고도 11000ft 상공 구름 보통

METAR: KORD 210651Z 00000KT 10SM SCT110 07/M04 A2988 RMK AO2 SLP119 T00721044

시각: 02:24 (07:24 UTC)

예보

예보는 1 시간 58분 전, 05:26시(UTC)에 발표되었습니다.
예보 대상 시간: 21일 06시부터 22일 12시까지 (UTC)
여러 방향의 바람 3kt
시정: 10km
고도 10000ft 상공 구름 보통
21일 1500시부터 (UTC)
11kt
시정: 10km
고도 20000ft 상공 구름 보통

TAF: KORD 210526Z 2106/2212 VRB03KT P6SM SCT100 FM211500 19011KT P6SM SCT200

4,000개 이상의 공항 관측 자료 및 예보 (METAR 및 TAF 보고).

지도상에서 검색 가능한 기상관측소가 노란 점과 빨간 점으로 표시되어 있습니다.

기상관측소 명을 보려면 표시 위로 마우스를 이동하세요.

날씨 관측과 예보를 보려면 클릭하세요.

지도 변경 : 확대하려면 엑스 표시가 있는 녹색 버튼, 축소하려면 빼기 표시가 있는 녹색 버튼, 다음 페이지의 지도를 보려면 녹색 화살표를 클릭하세요.


METAR-TAF: